createdAt,value
2019-05-11T00:00:32.646Z,96.12
2019-05-11T00:01:32.656Z,96.33
2019-05-11T00:02:32.614Z,96.12
2019-05-11T00:03:32.603Z,96.02
2019-05-11T00:04:37.616Z,96.22
2019-05-11T00:05:32.593Z,95.72
2019-05-11T00:06:32.589Z,95.25
2019-05-11T00:07:32.558Z,95.51
2019-05-11T00:08:32.546Z,95.81
2019-05-11T00:09:32.535Z,95.72
2019-05-11T00:10:32.538Z,96.12
2019-05-11T00:11:32.520Z,96.17
2019-05-11T00:12:32.505Z,96.27
2019-05-11T00:13:32.490Z,96.43
2019-05-11T00:14:32.479Z,96.53
2019-05-11T00:15:37.501Z,96.58
2019-05-11T00:16:32.457Z,97.55
2019-05-11T00:17:32.456Z,97.34
2019-05-11T00:18:32.436Z,97.96
2019-05-11T00:19:32.430Z,98.27
2019-05-11T00:20:32.430Z,98.57
2019-05-11T00:21:32.405Z,98.06
2019-05-11T00:22:32.394Z,97.80
2019-05-11T00:23:32.379Z,97.39
2019-05-11T00:24:32.377Z,97.49
2019-05-11T00:25:32.369Z,97.19
2019-05-11T00:26:37.379Z,96.98
2019-05-11T00:27:32.335Z,96.98
2019-05-11T00:28:32.327Z,96.98
2019-05-11T00:29:32.326Z,97.29
2019-05-11T00:30:32.300Z,97.55
2019-05-11T00:31:32.320Z,97.08
2019-05-11T00:32:32.279Z,97.19
2019-05-11T00:33:32.267Z,97.08
2019-05-11T00:34:32.256Z,97.39
2019-05-11T00:35:32.263Z,97.60
2019-05-11T00:36:32.264Z,97.39
2019-05-11T00:37:37.244Z,97.19
2019-05-11T00:38:32.212Z,97.39
2019-05-11T00:39:32.200Z,97.08
2019-05-11T00:40:32.201Z,97.29
2019-05-11T00:41:32.201Z,98.00
2019-05-11T00:42:32.166Z,97.29
2019-05-11T00:43:32.157Z,97.29
2019-05-11T00:44:32.145Z,97.29
2019-05-11T00:45:32.134Z,97.08
2019-05-11T00:46:32.137Z,97.70
2019-05-11T00:47:32.136Z,97.80
2019-05-11T00:48:37.121Z,97.19
2019-05-11T00:49:32.090Z,96.37
2019-05-11T00:50:39.234Z,97.08
2019-05-11T00:51:33.087Z,96.88
2019-05-11T00:52:32.064Z,97.29
2019-05-11T00:53:32.043Z,97.29
2019-05-11T00:54:32.033Z,97.08
2019-05-11T00:55:32.023Z,97.60
2019-05-11T00:56:32.021Z,97.29
2019-05-11T00:57:32.001Z,97.60
2019-05-11T00:58:32.000Z,97.29
2019-05-11T00:59:36.999Z,97.90
2019-05-11T01:00:31.976Z,98.00
2019-05-11T01:01:31.967Z,98.25
2019-05-11T01:02:31.972Z,97.85
2019-05-11T01:03:31.933Z,98.52
2019-05-11T01:04:31.931Z,98.77
2019-05-11T01:05:31.923Z,99.18
2019-05-11T01:06:31.909Z,99.18
2019-05-11T01:07:31.888Z,98.97
2019-05-11T01:08:31.877Z,98.56
2019-05-11T01:09:31.865Z,98.86
2019-05-11T01:10:42.243Z,98.86
2019-05-11T01:11:32.856Z,99.27
2019-05-11T01:12:31.834Z,99.27
2019-05-11T01:13:31.824Z,99.18
2019-05-11T01:14:31.819Z,99.79
2019-05-11T01:15:31.802Z,99.79
2019-05-11T01:16:31.787Z,99.99
2019-05-11T01:17:31.790Z,99.99
2019-05-11T01:18:31.766Z,99.99
2019-05-11T01:19:31.757Z,99.99
2019-05-11T01:20:31.747Z,99.99
2019-05-11T01:21:36.756Z,99.99
2019-05-11T01:22:31.749Z,99.99
2019-05-11T01:23:31.764Z,99.99
2019-05-11T01:24:31.698Z,99.99
2019-05-11T01:25:31.687Z,99.99
2019-05-11T01:26:31.782Z,99.99
2019-05-11T01:27:31.685Z,99.99
2019-05-11T01:28:31.654Z,99.99
2019-05-11T01:29:31.643Z,99.99
2019-05-11T01:30:31.634Z,99.99
2019-05-11T01:31:31.622Z,99.99
2019-05-11T01:32:36.650Z,99.99
2019-05-11T01:33:31.603Z,99.99
2019-05-11T01:34:31.589Z,99.99
2019-05-11T01:35:31.578Z,99.99
2019-05-11T01:36:31.565Z,99.99
2019-05-11T01:37:31.565Z,99.99
2019-05-11T01:38:31.545Z,99.99
2019-05-11T01:39:31.538Z,99.99
2019-05-11T01:40:31.526Z,99.99
2019-05-11T01:41:31.512Z,99.99
2019-05-11T01:42:31.508Z,99.99
2019-05-11T01:43:36.523Z,99.99
2019-05-11T01:44:31.480Z,99.99
2019-05-11T01:45:31.465Z,99.99
2019-05-11T01:46:31.453Z,99.99
2019-05-11T01:47:31.453Z,99.99
2019-05-11T01:48:31.433Z,99.99
2019-05-11T01:49:31.419Z,99.99
2019-05-11T01:50:31.417Z,99.99
2019-05-11T01:51:31.399Z,99.99
2019-05-11T01:52:31.401Z,99.99
2019-05-11T01:53:31.376Z,99.99
2019-05-11T01:54:36.389Z,99.99
2019-05-11T01:55:31.361Z,99.99
2019-05-11T01:56:31.344Z,99.99
2019-05-11T01:57:31.358Z,99.99
2019-05-11T01:58:31.324Z,99.99
2019-05-11T01:59:31.313Z,99.99
2019-05-11T02:00:31.300Z,99.99
2019-05-11T02:01:31.290Z,99.99
2019-05-11T02:02:31.290Z,99.99
2019-05-11T02:03:31.265Z,99.99
2019-05-11T02:04:31.254Z,99.99
2019-05-11T02:05:36.265Z,99.99
2019-05-11T02:06:31.234Z,99.99
2019-05-11T02:07:31.232Z,99.99
2019-05-11T02:08:31.257Z,99.99
2019-05-11T02:09:31.200Z,99.99
2019-05-11T02:10:31.188Z,99.99
2019-05-11T02:11:31.178Z,99.99
2019-05-11T02:12:31.193Z,99.99
2019-05-11T02:13:31.155Z,99.99
2019-05-11T02:14:31.152Z,99.99
2019-05-11T02:15:31.131Z,99.99
2019-05-11T02:16:36.142Z,99.99
2019-05-11T02:17:31.109Z,99.99
2019-05-11T02:18:31.111Z,99.99
2019-05-11T02:19:31.092Z,99.99
2019-05-11T02:20:31.076Z,99.99
2019-05-11T02:21:31.065Z,99.99
2019-05-11T02:22:31.054Z,99.99
2019-05-11T02:23:31.054Z,99.99
2019-05-11T02:24:31.036Z,99.99
2019-05-11T02:25:31.025Z,99.99
2019-05-11T02:26:31.010Z,99.99
2019-05-11T02:27:36.018Z,99.99
2019-05-11T02:28:31.002Z,99.99
2019-05-11T02:29:30.976Z,99.99
2019-05-11T02:30:30.966Z,99.99
2019-05-11T02:31:30.967Z,99.99
2019-05-11T02:32:30.944Z,99.99
2019-05-11T02:33:30.943Z,99.99
2019-05-11T02:34:30.924Z,99.99
2019-05-11T02:35:30.909Z,99.99
2019-05-11T02:36:30.905Z,99.99
2019-05-11T02:37:30.885Z,99.99
2019-05-11T02:38:35.908Z,99.99
2019-05-11T02:39:30.865Z,99.99
2019-05-11T02:40:30.853Z,99.99
2019-05-11T02:41:36.123Z,99.99
2019-05-11T02:42:31.840Z,99.99
2019-05-11T02:43:30.853Z,99.99
2019-05-11T02:44:30.808Z,99.99
2019-05-11T02:45:30.802Z,99.99
2019-05-11T02:46:30.786Z,99.99
2019-05-11T02:47:30.776Z,99.99
2019-05-11T02:48:30.770Z,99.99
2019-05-11T02:49:35.802Z,99.99
2019-05-11T02:50:30.740Z,99.99
2019-05-11T02:51:30.735Z,99.99
2019-05-11T02:52:30.734Z,99.99
2019-05-11T02:53:30.714Z,99.99
2019-05-11T02:54:30.715Z,99.99
2019-05-11T02:55:30.689Z,99.99
2019-05-11T02:56:30.685Z,99.99
2019-05-11T02:57:30.666Z,99.99
2019-05-11T02:58:30.683Z,99.99
2019-05-11T02:59:30.696Z,99.99
2019-05-11T03:00:35.652Z,99.99
2019-05-11T03:01:30.629Z,99.99
2019-05-11T03:02:30.610Z,99.99
2019-05-11T03:03:30.601Z,99.99
2019-05-11T03:04:30.598Z,99.99
2019-05-11T03:05:30.579Z,99.99
2019-05-11T03:06:30.566Z,99.99
2019-05-11T03:07:30.552Z,99.99
2019-05-11T03:08:30.543Z,99.99
2019-05-11T03:09:30.542Z,99.99
2019-05-11T03:10:30.553Z,99.99
2019-05-11T03:11:53.658Z,99.99
2019-05-11T03:12:31.494Z,99.99
2019-05-11T03:13:30.504Z,99.99
2019-05-11T03:14:30.495Z,99.99
2019-05-11T03:15:30.466Z,99.99
2019-05-11T03:16:30.453Z,99.99
2019-05-11T03:17:30.440Z,99.99
2019-05-11T03:18:30.432Z,99.99
2019-05-11T03:19:30.436Z,99.99
2019-05-11T03:20:30.405Z,99.99
2019-05-11T03:21:30.395Z,99.99
2019-05-11T03:22:35.407Z,99.99
2019-05-11T03:23:30.386Z,99.99
2019-05-11T03:24:30.374Z,99.99
2019-05-11T03:25:30.351Z,99.99
2019-05-11T03:26:30.340Z,99.99
2019-05-11T03:27:30.338Z,99.99
2019-05-11T03:28:30.318Z,99.99
2019-05-11T03:29:30.324Z,99.99
2019-05-11T03:30:30.302Z,99.99
2019-05-11T03:31:30.285Z,99.99
2019-05-11T03:32:30.275Z,99.99
2019-05-11T03:33:35.283Z,99.99
2019-05-11T03:34:30.261Z,99.99
2019-05-11T03:35:30.256Z,99.99
2019-05-11T03:36:30.231Z,99.99
2019-05-11T03:37:30.217Z,99.99
2019-05-11T03:38:30.207Z,99.99
2019-05-11T03:39:30.210Z,99.99
2019-05-11T03:40:30.205Z,99.99
2019-05-11T03:41:30.176Z,99.99
2019-05-11T03:42:30.181Z,99.99
2019-05-11T03:43:30.150Z,99.99
2019-05-11T03:44:35.186Z,99.99
2019-05-11T03:45:30.128Z,99.99
2019-05-11T03:46:30.118Z,99.99
2019-05-11T03:47:30.114Z,99.99
2019-05-11T03:48:30.117Z,99.99
2019-05-11T03:49:30.085Z,99.99
2019-05-11T03:50:30.099Z,99.99
2019-05-11T03:51:30.067Z,99.99
2019-05-11T03:52:30.049Z,99.99
2019-05-11T03:53:30.040Z,99.99
2019-05-11T03:54:30.028Z,99.99
2019-05-11T03:55:35.052Z,99.99
2019-05-11T03:56:30.006Z,99.99
2019-05-11T03:57:29.994Z,99.99
2019-05-11T03:58:29.990Z,99.99
2019-05-11T03:59:29.986Z,99.99
2019-05-11T04:00:29.978Z,99.99
2019-05-11T04:01:29.951Z,99.99
2019-05-11T04:02:29.942Z,99.99
2019-05-11T04:03:30.003Z,99.99
2019-05-11T04:04:29.921Z,99.99
2019-05-11T04:05:29.923Z,99.99
2019-05-11T04:06:34.922Z,99.99
2019-05-11T04:07:29.886Z,99.99
2019-05-11T04:08:29.873Z,99.99
2019-05-11T04:09:29.872Z,99.99
2019-05-11T04:10:29.865Z,99.99
2019-05-11T04:11:29.842Z,99.99
2019-05-11T04:12:34.764Z,99.99
2019-05-11T04:13:30.818Z,99.99
2019-05-11T04:14:29.806Z,99.99
2019-05-11T04:15:29.820Z,99.99
2019-05-11T04:16:29.783Z,99.99
2019-05-11T04:17:34.796Z,99.99
2019-05-11T04:18:29.763Z,99.99
2019-05-11T04:19:29.756Z,99.99
2019-05-11T04:20:29.750Z,99.99
2019-05-11T04:21:29.745Z,99.99
2019-05-11T04:22:29.720Z,99.99
2019-05-11T04:23:29.707Z,99.99
2019-05-11T04:24:29.695Z,99.99
2019-05-11T04:25:29.700Z,99.99
2019-05-11T04:26:29.688Z,99.99
2019-05-11T04:27:29.686Z,99.99
2019-05-11T04:28:34.673Z,99.99
2019-05-11T04:29:29.640Z,99.99
2019-05-11T04:30:29.640Z,99.99
2019-05-11T04:31:29.623Z,99.99
2019-05-11T04:32:29.607Z,99.99
2019-05-11T04:33:33.020Z,99.99
2019-05-11T04:34:29.581Z,99.99
2019-05-11T04:35:29.591Z,99.99
2019-05-11T04:36:29.574Z,99.99
2019-05-11T04:37:29.551Z,99.99
2019-05-11T04:38:29.549Z,99.99
2019-05-11T04:39:34.555Z,99.99
2019-05-11T04:40:29.517Z,99.99
2019-05-11T04:41:29.519Z,99.99
2019-05-11T04:42:29.499Z,99.99
2019-05-11T04:43:29.481Z,99.99
2019-05-11T04:44:29.476Z,99.99
2019-05-11T04:45:29.462Z,99.99
2019-05-11T04:46:29.536Z,99.99
2019-05-11T04:47:29.437Z,99.99
2019-05-11T04:48:29.434Z,99.99
2019-05-11T04:49:29.419Z,99.99
2019-05-11T04:50:34.426Z,99.99
2019-05-11T04:51:29.409Z,99.99
2019-05-11T04:52:29.384Z,99.99
2019-05-11T04:53:29.371Z,99.99
2019-05-11T04:54:29.365Z,99.99
2019-05-11T04:55:29.366Z,99.99
2019-05-11T04:56:29.348Z,99.99
2019-05-11T04:57:29.326Z,99.99
2019-05-11T04:58:29.313Z,99.99
2019-05-11T04:59:29.307Z,99.99
2019-05-11T05:00:29.303Z,99.99
2019-05-11T05:01:34.323Z,99.99
2019-05-11T05:02:29.281Z,99.99
2019-05-11T05:03:40.259Z,99.99
2019-05-11T05:04:30.248Z,99.99
2019-05-11T05:05:29.237Z,99.99
2019-05-11T05:06:29.249Z,99.99
2019-05-11T05:07:29.219Z,99.99
2019-05-11T05:08:29.209Z,99.99
2019-05-11T05:09:29.297Z,99.99
2019-05-11T05:10:29.185Z,99.99
2019-05-11T05:11:30.603Z,99.99
2019-05-11T05:12:35.178Z,99.99
2019-05-11T05:13:29.940Z,99.99
2019-05-11T05:14:29.136Z,99.99
2019-05-11T05:15:29.126Z,99.99
2019-05-11T05:16:31.329Z,99.99
2019-05-11T05:17:29.103Z,99.99
2019-05-11T05:18:29.095Z,99.99
2019-05-11T05:19:29.082Z,99.99
2019-05-11T05:20:29.069Z,99.99
2019-05-11T05:21:29.070Z,99.99
2019-05-11T05:22:29.047Z,99.99
2019-05-11T05:23:34.060Z,99.99
2019-05-11T05:24:29.029Z,99.99
2019-05-11T05:25:29.014Z,99.99
2019-05-11T05:26:29.017Z,99.99
2019-05-11T05:27:29.001Z,99.99
2019-05-11T05:28:28.993Z,99.99
2019-05-11T05:29:28.970Z,99.99
2019-05-11T05:30:28.958Z,99.99
2019-05-11T05:31:28.949Z,99.99
2019-05-11T05:32:28.948Z,99.99
2019-05-11T05:33:28.935Z,99.99
2019-05-11T05:34:33.973Z,99.99
2019-05-11T05:35:28.904Z,99.99
2019-05-11T05:36:28.895Z,99.99
2019-05-11T05:37:28.895Z,99.99
2019-05-11T05:38:28.872Z,99.99
2019-05-11T05:39:28.865Z,99.99
2019-05-11T05:40:28.847Z,99.99
2019-05-11T05:41:28.835Z,99.99
2019-05-11T05:42:28.839Z,99.99
2019-05-11T05:43:28.814Z,99.99
2019-05-11T05:44:28.807Z,99.99
2019-05-11T05:45:33.824Z,99.99
2019-05-11T05:46:28.780Z,99.99
2019-05-11T05:47:28.782Z,99.99
2019-05-11T05:48:28.758Z,99.99
2019-05-11T05:49:28.746Z,99.99
2019-05-11T05:50:28.739Z,99.99
2019-05-11T05:51:28.726Z,99.99
2019-05-11T05:52:28.723Z,99.99
2019-05-11T05:53:28.704Z,99.99
2019-05-11T05:54:28.690Z,99.99
2019-05-11T05:55:28.680Z,99.99
2019-05-11T05:56:33.696Z,99.99
2019-05-11T05:57:28.674Z,99.99
2019-05-11T05:58:28.649Z,99.99
2019-05-11T05:59:28.640Z,99.99
2019-05-11T06:00:28.627Z,99.99
2019-05-11T06:01:28.617Z,99.99
2019-05-11T06:02:28.647Z,99.99
2019-05-11T06:03:28.593Z,99.99
2019-05-11T06:04:28.579Z,99.99
2019-05-11T06:05:28.569Z,99.99
2019-05-11T06:06:28.556Z,99.99
2019-05-11T06:07:33.592Z,99.99
2019-05-11T06:08:28.536Z,99.99
2019-05-11T06:09:28.524Z,99.99
2019-05-11T06:10:28.511Z,99.99
2019-05-11T06:11:28.512Z,99.99
2019-05-11T06:12:28.491Z,99.99
2019-05-11T06:13:43.922Z,99.99
2019-05-11T06:14:29.467Z,99.99
2019-05-11T06:15:28.460Z,99.99
2019-05-11T06:16:28.485Z,99.99
2019-05-11T06:17:28.433Z,99.99
2019-05-11T06:18:33.461Z,99.99
2019-05-11T06:19:28.435Z,99.99
2019-05-11T06:20:28.407Z,99.99
2019-05-11T06:21:28.394Z,99.99
2019-05-11T06:22:28.388Z,99.99
2019-05-11T06:23:28.375Z,99.99
2019-05-11T06:24:28.354Z,99.99
2019-05-11T06:25:28.346Z,99.99
2019-05-11T06:26:28.333Z,99.99
2019-05-11T06:27:28.321Z,99.99
2019-05-11T06:28:28.321Z,99.99
2019-05-11T06:29:33.322Z,99.99
2019-05-11T06:30:28.293Z,99.99
2019-05-11T06:31:28.275Z,99.99
2019-05-11T06:32:28.266Z,99.99
2019-05-11T06:33:28.275Z,99.99
2019-05-11T06:34:28.248Z,99.99
2019-05-11T06:35:28.237Z,99.83
2019-05-11T06:36:28.222Z,99.42
2019-05-11T06:37:28.210Z,99.11
2019-05-11T06:38:28.209Z,98.91
2019-05-11T06:39:28.189Z,99.11
2019-05-11T06:40:33.202Z,99.02
2019-05-11T06:41:28.169Z,99.11
2019-05-11T06:42:28.159Z,99.22
2019-05-11T06:43:28.166Z,98.61
2019-05-11T06:44:28.141Z,99.42
2019-05-11T06:45:28.124Z,98.71
2019-05-11T06:46:28.115Z,99.52
2019-05-11T06:47:28.101Z,98.71
2019-05-11T06:48:28.102Z,99.02
2019-05-11T06:49:28.085Z,99.52
2019-05-11T06:50:28.070Z,99.22
2019-05-11T06:51:33.079Z,99.63
2019-05-11T06:52:28.055Z,98.61
2019-05-11T06:53:28.054Z,99.02
2019-05-11T06:54:28.029Z,99.22
2019-05-11T06:55:28.018Z,99.11
2019-05-11T06:56:28.004Z,98.61
2019-05-11T06:57:28.003Z,99.17
2019-05-11T06:58:27.993Z,98.77
2019-05-11T06:59:27.973Z,98.36
2019-05-11T07:00:27.965Z,98.46
2019-05-11T07:01:27.951Z,98.86
2019-05-11T07:02:32.961Z,99.13
2019-05-11T07:03:27.955Z,98.56
2019-05-11T07:04:27.916Z,98.97
2019-05-11T07:05:27.905Z,98.46
2019-05-11T07:06:30.493Z,98.21
2019-05-11T07:07:27.890Z,98.41
2019-05-11T07:08:27.874Z,98.62
2019-05-11T07:09:27.875Z,97.91
2019-05-11T07:10:27.851Z,97.80
2019-05-11T07:11:27.840Z,96.89
2019-05-11T07:12:27.965Z,97.50
2019-05-11T07:13:32.913Z,97.15
2019-05-11T07:14:27.818Z,96.99
2019-05-11T07:15:27.797Z,96.99
2019-05-11T07:16:27.787Z,96.64
2019-05-11T07:17:27.783Z,96.75
2019-05-11T07:18:27.762Z,96.54
2019-05-11T07:19:27.761Z,95.94
2019-05-11T07:20:27.745Z,95.83
2019-05-11T07:21:27.728Z,95.94
2019-05-11T07:22:27.716Z,95.53
2019-05-11T07:23:27.707Z,95.63
2019-05-11T07:24:32.777Z,95.38
2019-05-11T07:25:27.685Z,95.28
2019-05-11T07:26:27.683Z,95.58
2019-05-11T07:27:27.665Z,95.48
2019-05-11T07:28:27.648Z,95.38
2019-05-11T07:29:27.648Z,95.58
2019-05-11T07:30:27.626Z,95.58
2019-05-11T07:31:27.615Z,95.79
2019-05-11T07:32:29.379Z,96.25
2019-05-11T07:33:28.678Z,96.09
2019-05-11T07:34:27.834Z,96.75
2019-05-11T07:35:32.592Z,96.35
2019-05-11T07:36:28.239Z,96.04
2019-05-11T07:37:27.988Z,97.16
2019-05-11T07:38:27.964Z,97.16
2019-05-11T07:39:27.944Z,96.75
2019-05-11T07:40:28.015Z,96.75
2019-05-11T07:41:28.095Z,96.15
2019-05-11T07:42:28.594Z,96.04
2019-05-11T07:43:28.872Z,96.25
2019-05-11T07:44:35.784Z,96.35
2019-05-11T07:45:28.524Z,96.45
2019-05-11T07:46:32.464Z,96.35
2019-05-11T07:47:27.910Z,95.84
2019-05-11T07:48:27.993Z,95.84
2019-05-11T07:49:29.235Z,95.34
2019-05-11T07:50:28.428Z,94.62
2019-05-11T07:51:28.811Z,93.91
2019-05-11T07:52:28.769Z,94.02
2019-05-11T07:53:28.048Z,92.80
2019-05-11T07:54:28.110Z,92.40
2019-05-11T07:55:28.149Z,92.45
2019-05-11T07:56:28.531Z,92.65
2019-05-11T07:57:32.343Z,91.64
2019-05-11T07:58:28.557Z,91.64
2019-05-11T07:59:29.004Z,91.94
2019-05-11T08:00:28.049Z,91.85
2019-05-11T08:01:28.170Z,90.88
2019-05-11T08:02:28.164Z,91.08
2019-05-11T08:03:28.333Z,90.57
2019-05-11T08:04:28.810Z,90.57
2019-05-11T08:05:28.364Z,90.97
2019-05-11T08:06:28.595Z,90.97
2019-05-11T08:07:28.530Z,91.48
2019-05-11T08:08:32.218Z,91.94
2019-05-11T08:09:27.954Z,92.40
2019-05-11T08:10:28.169Z,91.03
2019-05-11T08:11:30.807Z,91.58
2019-05-11T08:12:28.521Z,91.58
2019-05-11T08:13:28.229Z,90.36
2019-05-11T08:14:28.730Z,90.26
2019-05-11T08:15:28.411Z,90.36
2019-05-11T08:16:28.464Z,90.16
2019-05-11T08:17:28.609Z,90.97
2019-05-11T08:18:28.230Z,90.67
2019-05-11T08:19:32.098Z,90.97
2019-05-11T08:20:28.116Z,91.08
2019-05-11T08:21:28.381Z,89.65
2019-05-11T08:22:28.438Z,89.86
2019-05-11T08:23:28.524Z,88.75
2019-05-11T08:24:28.446Z,87.43
2019-05-11T08:25:28.672Z,89.04
2019-05-11T08:26:28.305Z,87.32
2019-05-11T08:27:28.593Z,87.52
2019-05-11T08:28:28.809Z,88.23
2019-05-11T08:29:27.860Z,87.32
2019-05-11T08:30:31.981Z,86.41
2019-05-11T08:31:27.985Z,86.82
2019-05-11T08:32:28.691Z,86.21
2019-05-11T08:33:28.392Z,85.30
2019-05-11T08:34:28.582Z,85.30
2019-05-11T08:35:30.951Z,85.76
2019-05-11T08:36:28.906Z,85.01
2019-05-11T08:37:28.430Z,84.20
2019-05-11T08:38:28.520Z,85.42
2019-05-11T08:39:28.850Z,84.70
2019-05-11T08:40:28.824Z,84.91
2019-05-11T08:41:31.848Z,84.87
2019-05-11T08:42:28.866Z,83.55
2019-05-11T08:43:28.517Z,84.06
2019-05-11T08:44:28.709Z,83.76
2019-05-11T08:45:27.938Z,84.56
2019-05-11T08:46:27.906Z,84.33
2019-05-11T08:47:28.368Z,81.90
2019-05-11T08:48:28.244Z,83.17
2019-05-11T08:49:28.706Z,81.45
2019-05-11T08:50:27.967Z,79.69
2019-05-11T08:51:28.038Z,80.40
2019-05-11T08:52:31.728Z,79.49
2019-05-11T08:53:28.415Z,79.29
2019-05-11T08:54:28.859Z,79.25
2019-05-11T08:55:28.786Z,76.05
2019-05-11T08:56:28.740Z,77.17
2019-05-11T08:57:28.490Z,78.88
2019-05-11T08:58:27.807Z,76.66
2019-05-11T08:59:27.963Z,76.02
2019-05-11T09:00:28.374Z,76.32
2019-05-11T09:01:28.702Z,76.02
2019-05-11T09:02:27.810Z,76.52
2019-05-11T09:03:31.612Z,76.12
2019-05-11T09:04:28.804Z,74.60
2019-05-11T09:05:28.035Z,74.60
2019-05-11T09:06:28.436Z,74.60
2019-05-11T09:07:27.824Z,73.96
2019-05-11T09:08:28.267Z,71.33
2019-05-11T09:09:28.661Z,72.24
2019-05-11T09:10:28.135Z,72.81
2019-05-11T09:11:28.399Z,71.40
2019-05-11T09:12:28.704Z,71.00
2019-05-11T09:13:27.924Z,71.10
2019-05-11T09:14:31.482Z,71.70
2019-05-11T09:15:36.250Z,70.36
2019-05-11T09:16:29.116Z,69.85
2019-05-11T09:17:28.751Z,69.04
2019-05-11T09:18:27.971Z,69.28
2019-05-11T09:19:28.510Z,69.58
2019-05-11T09:20:28.476Z,68.27
2019-05-11T09:21:28.116Z,68.51
2019-05-11T09:22:28.339Z,69.71
2019-05-11T09:23:34.543Z,68.80
2019-05-11T09:24:28.158Z,69.14
2019-05-11T09:25:31.384Z,69.24
2019-05-11T09:26:28.475Z,71.06
2019-05-11T09:27:28.450Z,72.48
2019-05-11T09:28:26.302Z,74.10
2019-05-11T09:29:28.125Z,74.84
2019-05-11T09:30:28.642Z,75.04
2019-05-11T09:31:27.974Z,74.63
2019-05-11T09:32:28.331Z,75.34
2019-05-11T09:33:28.177Z,76.19
2019-05-11T09:34:28.647Z,75.75
2019-05-11T09:35:26.220Z,74.98
2019-05-11T09:36:31.263Z,76.39
2019-05-11T09:37:27.744Z,74.98
2019-05-11T09:38:27.765Z,76.50
2019-05-11T09:39:28.031Z,76.09
2019-05-11T09:40:28.232Z,76.19
2019-05-11T09:41:26.164Z,75.99
2019-05-11T09:42:28.400Z,76.12
2019-05-11T09:43:28.276Z,74.10
2019-05-11T09:44:28.605Z,74.47
2019-05-11T09:45:27.808Z,73.36
2019-05-11T09:46:27.905Z,73.25
2019-05-11T09:47:31.110Z,73.05
2019-05-11T09:48:28.247Z,71.73
2019-05-11T09:49:43.506Z,71.33
2019-05-11T09:50:28.362Z,71.53
2019-05-11T09:51:28.567Z,71.33
2019-05-11T09:52:27.572Z,71.94
2019-05-11T09:53:28.174Z,72.34
2019-05-11T09:54:26.010Z,71.60
2019-05-11T09:55:28.115Z,70.39
2019-05-11T09:56:26.008Z,70.89
2019-05-11T09:57:27.647Z,71.20
2019-05-11T09:58:30.990Z,70.49
2019-05-11T09:59:28.126Z,69.98
2019-05-11T10:00:28.108Z,68.80
2019-05-11T10:01:25.957Z,68.77
2019-05-11T10:02:27.998Z,70.29
2019-05-11T10:03:28.019Z,67.76
2019-05-11T10:04:25.897Z,68.97
2019-05-11T10:05:28.440Z,69.41
2019-05-11T10:06:28.067Z,68.26
2019-05-11T10:07:25.875Z,68.16
2019-05-11T10:08:25.875Z,69.01
2019-05-11T10:09:30.866Z,69.48
2019-05-11T10:10:25.836Z,69.18
2019-05-11T10:11:28.099Z,69.07
2019-05-11T10:12:25.810Z,68.67
2019-05-11T10:13:27.772Z,69.58
2019-05-11T10:14:25.822Z,68.97
2019-05-11T10:15:27.867Z,68.33
2019-05-11T10:16:27.902Z,69.34
2019-05-11T10:17:25.774Z,69.24
2019-05-11T10:18:27.992Z,68.51
2019-05-11T10:19:28.217Z,67.29
2019-05-11T10:20:30.849Z,67.16
2019-05-11T10:21:27.421Z,66.65
2019-05-11T10:22:27.773Z,66.42
2019-05-11T10:23:27.904Z,65.54
2019-05-11T10:24:28.140Z,65.34
2019-05-11T10:25:25.666Z,64.84
2019-05-11T10:26:27.268Z,65.54
2019-05-11T10:27:27.885Z,65.54
2019-05-11T10:28:25.631Z,65.54
2019-05-11T10:29:25.623Z,65.44
2019-05-11T10:30:27.819Z,65.64
2019-05-11T10:31:30.629Z,66.08
2019-05-11T10:32:25.596Z,65.24
2019-05-11T10:33:27.979Z,65.44
2019-05-11T10:34:25.567Z,65.44
2019-05-11T10:35:25.554Z,64.56
2019-05-11T10:36:27.842Z,64.97
2019-05-11T10:37:25.551Z,64.16
2019-05-11T10:38:25.531Z,64.67
2019-05-11T10:39:27.710Z,64.56
2019-05-11T10:40:27.505Z,65.37
2019-05-11T10:41:25.488Z,65.47
2019-05-11T10:42:30.550Z,63.05
2019-05-11T10:43:25.476Z,63.96
2019-05-11T10:44:27.916Z,63.45
2019-05-11T10:45:25.451Z,64.90
2019-05-11T10:46:25.439Z,64.09
2019-05-11T10:47:27.658Z,63.99
2019-05-11T10:48:25.406Z,64.59
2019-05-11T10:49:25.397Z,64.76
2019-05-11T10:50:25.390Z,63.85
2019-05-11T10:51:25.377Z,64.76
2019-05-11T10:52:25.375Z,64.06
2019-05-11T10:53:30.380Z,63.65
2019-05-11T10:54:28.457Z,64.76
2019-05-11T10:55:25.333Z,64.56
2019-05-11T10:56:25.320Z,63.05
2019-05-11T10:57:25.321Z,63.42
2019-05-11T10:58:25.296Z,63.05
2019-05-11T10:59:27.962Z,63.15
2019-05-11T11:00:25.281Z,63.55
2019-05-11T11:01:25.270Z,64.26
2019-05-11T11:02:27.331Z,63.15
2019-05-11T11:03:25.241Z,62.74
2019-05-11T11:04:30.262Z,63.76
2019-05-11T11:05:25.217Z,63.85
2019-05-11T11:06:25.207Z,64.97
2019-05-11T11:07:25.214Z,63.85
2019-05-11T11:08:25.186Z,64.03
2019-05-11T11:09:25.200Z,63.55
2019-05-11T11:10:25.161Z,62.51
2019-05-11T11:11:27.615Z,63.12
2019-05-11T11:12:25.157Z,62.11
2019-05-11T11:13:25.129Z,62.95
2019-05-11T11:14:25.119Z,63.05
2019-05-11T11:15:30.136Z,63.35
2019-05-11T11:16:36.785Z,63.15
2019-05-11T11:17:28.577Z,63.25
2019-05-11T11:18:25.082Z,62.85
2019-05-11T11:19:25.061Z,63.35
2019-05-11T11:20:25.050Z,64.97
2019-05-11T11:21:25.050Z,64.76
2019-05-11T11:22:36.968Z,64.67
2019-05-11T11:23:28.338Z,64.36
2019-05-11T11:24:25.019Z,63.96
2019-05-11T11:25:24.996Z,64.36
2019-05-11T11:26:30.007Z,63.96
2019-05-11T11:27:24.978Z,63.15
2019-05-11T11:28:24.976Z,63.35
2019-05-11T11:29:24.951Z,63.65
2019-05-11T11:30:24.958Z,63.52
2019-05-11T11:31:24.928Z,62.71
2019-05-11T11:32:24.917Z,63.19
2019-05-11T11:33:24.922Z,61.85
2019-05-11T11:34:24.896Z,61.57
2019-05-11T11:35:24.891Z,61.57
2019-05-11T11:36:24.956Z,60.46
2019-05-11T11:37:29.888Z,60.46
2019-05-11T11:38:24.868Z,59.96
2019-05-11T11:39:24.855Z,60.06
2019-05-11T11:40:24.828Z,59.96
2019-05-11T11:41:24.817Z,60.16
2019-05-11T11:42:24.816Z,60.46
2019-05-11T11:43:24.809Z,58.65
2019-05-11T11:44:24.789Z,59.05
2019-05-11T11:45:24.773Z,58.75
2019-05-11T11:46:24.760Z,58.92
2019-05-11T11:47:24.753Z,57.98
2019-05-11T11:48:29.772Z,57.05
2019-05-11T11:49:24.731Z,56.95
2019-05-11T11:50:24.722Z,62.40
2019-05-11T11:51:24.711Z,65.32
2019-05-11T11:52:24.695Z,66.49
2019-05-11T11:53:24.695Z,67.23
2019-05-11T11:54:24.673Z,68.67
2019-05-11T11:55:24.665Z,70.32
2019-05-11T11:56:24.652Z,70.96
2019-05-11T11:57:24.647Z,71.13
2019-05-11T11:58:24.640Z,71.03
2019-05-11T11:59:29.649Z,71.57
2019-05-11T12:00:24.617Z,72.38
2019-05-11T12:01:24.607Z,72.92
2019-05-11T12:02:24.587Z,74.03
2019-05-11T12:03:24.608Z,74.16
2019-05-11T12:04:24.575Z,74.91
2019-05-11T12:05:24.558Z,75.21
2019-05-11T12:06:24.543Z,75.62
2019-05-11T12:07:24.531Z,76.03
2019-05-11T12:08:24.534Z,76.56
2019-05-11T12:09:24.508Z,76.77
2019-05-11T12:10:29.529Z,76.40
2019-05-11T12:11:24.501Z,76.09
2019-05-11T12:12:24.477Z,76.09
2019-05-11T12:13:26.599Z,77.41
2019-05-11T12:14:24.462Z,77.01
2019-05-11T12:15:24.441Z,77.01
2019-05-11T12:16:24.430Z,77.34
2019-05-11T12:17:24.443Z,77.34
2019-05-11T12:18:24.411Z,77.14
2019-05-11T12:19:24.423Z,77.34
2019-05-11T12:20:24.392Z,76.06
2019-05-11T12:21:29.397Z,74.98
2019-05-11T12:22:24.367Z,76.20
2019-05-11T12:23:24.352Z,77.72
2019-05-11T12:24:24.353Z,78.42
2019-05-11T12:25:24.329Z,78.83
2019-05-11T12:26:24.318Z,78.25
2019-05-11T12:27:24.307Z,78.08
2019-05-11T12:28:24.297Z,78.79
2019-05-11T12:29:24.297Z,78.39
2019-05-11T12:30:24.274Z,77.06
2019-05-11T12:31:24.265Z,76.50
2019-05-11T12:32:29.272Z,77.24
2019-05-11T12:33:24.239Z,77.24
2019-05-11T12:34:24.241Z,78.05
2019-05-11T12:35:24.217Z,77.98
2019-05-11T12:36:24.207Z,78.28
2019-05-11T12:37:24.195Z,77.48
2019-05-11T12:38:24.184Z,77.48
2019-05-11T12:39:24.188Z,77.17
2019-05-11T12:40:24.173Z,77.48
2019-05-11T12:41:24.150Z,76.87
2019-05-11T12:42:24.141Z,76.16
2019-05-11T12:43:29.161Z,76.36
2019-05-11T12:44:24.161Z,76.16
2019-05-11T12:45:24.113Z,76.36
2019-05-11T12:46:24.102Z,75.99
2019-05-11T12:47:25.164Z,76.50
2019-05-11T12:48:24.074Z,77.01
2019-05-11T12:49:24.071Z,76.40
2019-05-11T12:50:24.051Z,75.79
2019-05-11T12:51:24.041Z,76.54
2019-05-11T12:52:24.031Z,76.54